sensor_id;sensor_type;location;lat;lon;timestamp;P1;durP1;ratioP1;P2;durP2;ratioP2
83485;SDS011;73423;45.118;20.726;2024-03-23T00:56:10;36.60;;;18.17;;
83485;SDS011;73423;45.118;20.726;2024-03-23T01:06:11;37.45;;;17.70;;
83485;SDS011;73423;45.118;20.726;2024-03-23T01:16:12;35.17;;;17.53;;
83485;SDS011;73423;45.118;20.726;2024-03-23T01:26:13;33.40;;;16.07;;
83485;SDS011;73423;45.118;20.726;2024-03-23T01:36:14;33.53;;;18.80;;
83485;SDS011;73423;45.118;20.726;2024-03-23T01:46:16;38.83;;;19.20;;
83485;SDS011;73423;45.118;20.726;2024-03-23T01:56:17;41.20;;;20.17;;
83485;SDS011;73423;45.118;20.726;2024-03-23T02:06:18;40.90;;;20.77;;
83485;SDS011;73423;45.118;20.726;2024-03-23T02:16:20;47.28;;;23.33;;
83485;SDS011;73423;45.118;20.726;2024-03-23T02:26:21;50.00;;;25.57;;
83485;SDS011;73423;45.118;20.726;2024-03-23T02:36:22;52.60;;;28.27;;
83485;SDS011;73423;45.118;20.726;2024-03-23T02:46:23;67.45;;;31.13;;
83485;SDS011;73423;45.118;20.726;2024-03-23T02:56:24;52.67;;;27.40;;
83485;SDS011;73423;45.118;20.726;2024-03-23T03:06:25;54.87;;;25.57;;
83485;SDS011;73423;45.118;20.726;2024-03-23T03:16:27;51.03;;;25.58;;
83485;SDS011;73423;45.118;20.726;2024-03-23T03:26:28;47.00;;;23.13;;
83485;SDS011;73423;45.118;20.726;2024-03-23T03:36:29;47.67;;;22.77;;
83485;SDS011;73423;45.118;20.726;2024-03-23T03:46:30;41.07;;;20.93;;
83485;SDS011;73423;45.118;20.726;2024-03-23T03:56:31;34.97;;;19.20;;
83485;SDS011;73423;45.118;20.726;2024-03-23T04:06:33;36.63;;;19.63;;
83485;SDS011;73423;45.118;20.726;2024-03-23T04:16:35;34.93;;;17.63;;
83485;SDS011;73423;45.118;20.726;2024-03-23T04:26:42;36.13;;;18.08;;
83485;SDS011;73423;45.118;20.726;2024-03-23T04:36:44;54.73;;;22.90;;
83485;SDS011;73423;45.118;20.726;2024-03-23T04:46:45;33.73;;;17.00;;
83485;SDS011;73423;45.118;20.726;2024-03-23T04:56:48;34.63;;;17.25;;
83485;SDS011;73423;45.118;20.726;2024-03-23T05:06:49;33.00;;;15.73;;
83485;SDS011;73423;45.118;20.726;2024-03-23T05:16:50;33.00;;;15.67;;
83485;SDS011;73423;45.118;20.726;2024-03-23T05:26:51;32.83;;;15.90;;
83485;SDS011;73423;45.118;20.726;2024-03-23T05:36:52;29.08;;;14.90;;
83485;SDS011;73423;45.118;20.726;2024-03-23T05:46:53;27.27;;;13.70;;
83485;SDS011;73423;45.118;20.726;2024-03-23T05:56:55;24.27;;;12.30;;
83485;SDS011;73423;45.118;20.726;2024-03-23T06:06:56;25.13;;;13.23;;
83485;SDS011;73423;45.118;20.726;2024-03-23T06:16:58;24.10;;;12.57;;
83485;SDS011;73423;45.118;20.726;2024-03-23T06:27:00;27.27;;;12.20;;
83485;SDS011;73423;45.118;20.726;2024-03-23T06:37:01;21.63;;;10.98;;
83485;SDS011;73423;45.118;20.726;2024-03-23T06:47:04;21.90;;;11.20;;
83485;SDS011;73423;45.118;20.726;2024-03-23T06:57:05;21.40;;;10.33;;
83485;SDS011;73423;45.118;20.726;2024-03-23T07:07:06;23.20;;;10.90;;
83485;SDS011;73423;45.118;20.726;2024-03-23T07:17:07;22.33;;;10.32;;
83485;SDS011;73423;45.118;20.726;2024-03-23T07:27:08;17.43;;;9.40;;
83485;SDS011;73423;45.118;20.726;2024-03-23T07:37:12;17.43;;;9.57;;
83485;SDS011;73423;45.118;20.726;2024-03-23T07:47:14;16.92;;;9.50;;
83485;SDS011;73423;45.118;20.726;2024-03-23T07:57:15;16.40;;;9.23;;
83485;SDS011;73423;45.118;20.726;2024-03-23T08:07:16;17.43;;;9.13;;
83485;SDS011;73423;45.118;20.726;2024-03-23T08:17:17;17.45;;;9.75;;
83485;SDS011;73423;45.118;20.726;2024-03-23T08:27:18;19.00;;;10.60;;
83485;SDS011;73423;45.118;20.726;2024-03-23T08:37:19;21.30;;;10.03;;
83485;SDS011;73423;45.118;20.726;2024-03-23T08:47:20;15.80;;;9.00;;
83485;SDS011;73423;45.118;20.726;2024-03-23T08:57:22;15.23;;;8.60;;
83485;SDS011;73423;45.118;20.726;2024-03-23T09:07:24;19.07;;;10.67;;
83485;SDS011;73423;45.118;20.726;2024-03-23T09:17:25;14.23;;;8.45;;
83485;SDS011;73423;45.118;20.726;2024-03-23T09:27:26;14.17;;;8.90;;
83485;SDS011;73423;45.118;20.726;2024-03-23T09:37:27;29.33;;;22.77;;
83485;SDS011;73423;45.118;20.726;2024-03-23T09:47:29;16.47;;;8.17;;
83485;SDS011;73423;45.118;20.726;2024-03-23T09:57:30;14.43;;;7.40;;
83485;SDS011;73423;45.118;20.726;2024-03-23T10:07:31;10.55;;;7.22;;
83485;SDS011;73423;45.118;20.726;2024-03-23T10:17:32;12.77;;;6.43;;
83485;SDS011;73423;45.118;20.726;2024-03-23T10:27:33;14.03;;;5.90;;
83485;SDS011;73423;45.118;20.726;2024-03-23T10:37:35;11.47;;;6.83;;
83485;SDS011;73423;45.118;20.726;2024-03-23T10:47:37;14.43;;;7.63;;
83485;SDS011;73423;45.118;20.726;2024-03-23T10:57:51;9.30;;;6.18;;
83485;SDS011;73423;45.118;20.726;2024-03-23T11:07:54;8.07;;;5.67;;
83485;SDS011;73423;45.118;20.726;2024-03-23T11:18:02;8.13;;;5.30;;
83485;SDS011;73423;45.118;20.726;2024-03-23T11:28:11;8.17;;;5.60;;
83485;SDS011;73423;45.118;20.726;2024-03-23T11:38:13;9.87;;;4.70;;
83485;SDS011;73423;45.118;20.726;2024-03-23T11:48:16;7.35;;;4.40;;
83485;SDS011;73423;45.118;20.726;2024-03-23T11:58:19;13.00;;;4.20;;
83485;SDS011;73423;45.118;20.726;2024-03-23T12:08:29;6.13;;;3.97;;
83485;SDS011;73423;45.118;20.726;2024-03-23T12:18:30;5.87;;;3.70;;
83485;SDS011;73423;45.118;20.726;2024-03-23T12:28:32;6.37;;;3.93;;
83485;SDS011;73423;45.118;20.726;2024-03-23T12:38:33;6.18;;;3.25;;
83485;SDS011;73423;45.118;20.726;2024-03-23T12:48:34;10.10;;;4.37;;
83485;SDS011;73423;45.118;20.726;2024-03-23T12:58:35;5.27;;;2.40;;
83485;SDS011;73423;45.118;20.726;2024-03-23T13:08:36;4.67;;;1.97;;
83485;SDS011;73423;45.118;20.726;2024-03-23T13:18:39;3.20;;;1.90;;
83485;SDS011;73423;45.118;20.726;2024-03-23T13:28:40;5.93;;;2.30;;
83485;SDS011;73423;45.118;20.726;2024-03-23T13:38:42;4.40;;;2.40;;
83485;SDS011;73423;45.118;20.726;2024-03-23T13:48:43;4.10;;;2.57;;
83485;SDS011;73423;45.118;20.726;2024-03-23T13:58:44;12.93;;;7.70;;
83485;SDS011;73423;45.118;20.726;2024-03-23T14:08:49;13.50;;;4.23;;
83485;SDS011;73423;45.118;20.726;2024-03-23T14:18:51;7.97;;;3.72;;
83485;SDS011;73423;45.118;20.726;2024-03-23T14:28:52;8.00;;;2.80;;
83485;SDS011;73423;45.118;20.726;2024-03-23T14:38:53;4.97;;;2.90;;
83485;SDS011;73423;45.118;20.726;2024-03-23T14:48:54;5.40;;;2.93;;
83485;SDS011;73423;45.118;20.726;2024-03-23T14:58:55;5.70;;;2.97;;
83485;SDS011;73423;45.118;20.726;2024-03-23T15:08:57;8.15;;;4.10;;
83485;SDS011;73423;45.118;20.726;2024-03-23T15:18:58;8.27;;;4.70;;
83485;SDS011;73423;45.118;20.726;2024-03-23T15:28:59;14.43;;;5.80;;
83485;SDS011;73423;45.118;20.726;2024-03-23T15:39:00;3.03;;;2.40;;
83485;SDS011;73423;45.118;20.726;2024-03-23T15:49:01;6.07;;;2.70;;
83485;SDS011;73423;45.118;20.726;2024-03-23T15:59:02;19.88;;;4.72;;
83485;SDS011;73423;45.118;20.726;2024-03-23T16:09:07;14.60;;;5.90;;
83485;SDS011;73423;45.118;20.726;2024-03-23T16:19:09;15.57;;;6.60;;
83485;SDS011;73423;45.118;20.726;2024-03-23T16:29:13;34.00;;;10.60;;
83485;SDS011;73423;45.118;20.726;2024-03-23T16:39:14;37.27;;;12.60;;
83485;SDS011;73423;45.118;20.726;2024-03-23T16:49:16;22.73;;;8.18;;
83485;SDS011;73423;45.118;20.726;2024-03-23T16:59:17;30.87;;;13.60;;
83485;SDS011;73423;45.118;20.726;2024-03-23T17:09:18;31.07;;;15.53;;
83485;SDS011;73423;45.118;20.726;2024-03-23T17:19:20;50.63;;;25.87;;
83485;SDS011;73423;45.118;20.726;2024-03-23T17:29:22;91.37;;;43.87;;
83485;SDS011;73423;45.118;20.726;2024-03-23T17:39:23;109.80;;;52.40;;
83485;SDS011;73423;45.118;20.726;2024-03-23T17:49:24;161.37;;;63.70;;
83485;SDS011;73423;45.118;20.726;2024-03-23T17:59:27;81.10;;;32.93;;
83485;SDS011;73423;45.118;20.726;2024-03-23T18:09:28;79.97;;;32.90;;
83485;SDS011;73423;45.118;20.726;2024-03-23T18:19:30;107.73;;;38.53;;
83485;SDS011;73423;45.118;20.726;2024-03-23T18:29:31;112.47;;;41.30;;
83485;SDS011;73423;45.118;20.726;2024-03-23T18:39:32;42.90;;;17.80;;
83485;SDS011;73423;45.118;20.726;2024-03-23T18:49:33;33.57;;;13.60;;
83485;SDS011;73423;45.118;20.726;2024-03-23T18:59:34;33.88;;;13.60;;
83485;SDS011;73423;45.118;20.726;2024-03-23T19:09:36;36.03;;;17.20;;
83485;SDS011;73423;45.118;20.726;2024-03-23T19:19:37;34.37;;;15.90;;
83485;SDS011;73423;45.118;20.726;2024-03-23T19:29:38;28.73;;;15.10;;
83485;SDS011;73423;45.118;20.726;2024-03-23T19:39:39;30.40;;;15.37;;
83485;SDS011;73423;45.118;20.726;2024-03-23T19:49:43;28.17;;;11.07;;
83485;SDS011;73423;45.118;20.726;2024-03-23T19:59:44;16.17;;;10.03;;
83485;SDS011;73423;45.118;20.726;2024-03-23T20:09:45;10.80;;;7.23;;
83485;SDS011;73423;45.118;20.726;2024-03-23T20:19:47;11.32;;;5.63;;
83485;SDS011;73423;45.118;20.726;2024-03-23T20:29:48;11.67;;;5.03;;
83485;SDS011;73423;45.118;20.726;2024-03-23T20:39:53;11.17;;;6.60;;
83485;SDS011;73423;45.118;20.726;2024-03-23T20:49:55;26.07;;;14.77;;
83485;SDS011;73423;45.118;20.726;2024-03-23T20:59:56;29.83;;;16.20;;
83485;SDS011;73423;45.118;20.726;2024-03-23T21:09:57;70.95;;;34.53;;
83485;SDS011;73423;45.118;20.726;2024-03-23T21:19:58;36.37;;;19.77;;
83485;SDS011;73423;45.118;20.726;2024-03-23T21:29:59;35.80;;;18.50;;
83485;SDS011;73423;45.118;20.726;2024-03-23T21:40:00;29.48;;;12.48;;
83485;SDS011;73423;45.118;20.726;2024-03-23T21:50:02;24.17;;;11.20;;
83485;SDS011;73423;45.118;20.726;2024-03-23T22:00:03;36.17;;;17.43;;
83485;SDS011;73423;45.118;20.726;2024-03-23T22:10:13;38.07;;;16.63;;
83485;SDS011;73423;45.118;20.726;2024-03-23T22:20:14;15.90;;;9.80;;
83485;SDS011;73423;45.118;20.726;2024-03-23T22:30:16;15.15;;;8.23;;
83485;SDS011;73423;45.118;20.726;2024-03-23T22:40:17;21.93;;;11.93;;
83485;SDS011;73423;45.118;20.726;2024-03-23T22:50:18;21.33;;;5.73;;
83485;SDS011;73423;45.118;20.726;2024-03-23T23:00:19;6.78;;;1.95;;
83485;SDS011;73423;45.118;20.726;2024-03-23T23:10:22;7.97;;;1.73;;
83485;SDS011;73423;45.118;20.726;2024-03-23T23:20:23;7.50;;;1.30;;
83485;SDS011;73423;45.118;20.726;2024-03-23T23:30:26;12.07;;;1.60;;
83485;SDS011;73423;45.118;20.726;2024-03-23T23:40:27;6.80;;;1.20;;
83485;SDS011;73423;45.118;20.726;2024-03-23T23:50:30;4.53;;;1.00;;
